createdAt,value
2017-07-10T00:02:18.461Z,98170
2017-07-10T00:04:46.532Z,98168
2017-07-10T00:07:14.607Z,98162
2017-07-10T00:09:42.675Z,98171
2017-07-10T00:12:10.778Z,98165
2017-07-10T00:14:38.852Z,98169
2017-07-10T00:17:07.688Z,98169
2017-07-10T00:19:35.781Z,98165
2017-07-10T00:22:03.840Z,98168
2017-07-10T00:24:31.993Z,98161
2017-07-10T00:27:00.063Z,98154
2017-07-10T00:29:28.139Z,98161
2017-07-10T00:31:56.213Z,98159
2017-07-10T00:34:24.297Z,98155
2017-07-10T00:36:52.365Z,98161
2017-07-10T00:39:20.495Z,98166
2017-07-10T00:41:49.319Z,98168
2017-07-10T00:44:17.392Z,98166
2017-07-10T00:46:45.483Z,98174
2017-07-10T00:49:13.547Z,98171
2017-07-10T00:51:41.628Z,98175
2017-07-10T00:54:09.704Z,98174
2017-07-10T00:56:37.776Z,98175
2017-07-10T00:59:05.843Z,98179
2017-07-10T01:01:33.937Z,98186
2017-07-10T01:04:02.006Z,98176
2017-07-10T01:06:30.081Z,98173
2017-07-10T01:08:58.151Z,98175
2017-07-10T01:11:26.219Z,98184
2017-07-10T01:13:54.313Z,98184
2017-07-10T01:16:23.152Z,98180
2017-07-10T01:18:51.226Z,98184
2017-07-10T01:21:19.300Z,98191
2017-07-10T01:23:47.388Z,98184
2017-07-10T01:26:15.457Z,98198
2017-07-10T01:28:43.553Z,98197
2017-07-10T01:31:12.415Z,98194
2017-07-10T01:33:40.491Z,98202
2017-07-10T01:36:08.564Z,98203
2017-07-10T01:38:36.640Z,98208
2017-07-10T01:41:04.728Z,98208
2017-07-10T01:43:32.800Z,98209
2017-07-10T01:46:00.928Z,98202
2017-07-10T01:48:29.007Z,98206
2017-07-10T01:50:57.091Z,98203
2017-07-10T01:53:25.176Z,98208
2017-07-10T01:55:53.247Z,98205
2017-07-10T01:58:21.319Z,98206
2017-07-10T02:00:49.388Z,98207
2017-07-10T02:03:17.475Z,98208
2017-07-10T02:05:45.539Z,98212
2017-07-10T02:08:13.605Z,98208
2017-07-10T02:10:41.701Z,98198
2017-07-10T02:13:09.778Z,98199
2017-07-10T02:15:38.763Z,98191
2017-07-10T02:18:06.835Z,98196
2017-07-10T02:20:34.919Z,98189
2017-07-10T02:23:03.762Z,98192
2017-07-10T02:25:31.831Z,98192
2017-07-10T02:27:59.903Z,98198
2017-07-10T02:30:27.978Z,98199
2017-07-10T02:32:56.047Z,98190
2017-07-10T02:35:24.126Z,98188
2017-07-10T02:37:52.195Z,98195
2017-07-10T02:40:20.267Z,98199
2017-07-10T02:42:49.104Z,98206
2017-07-10T02:45:17.174Z,98202
2017-07-10T02:47:45.231Z,98209
2017-07-10T02:50:13.309Z,98208
2017-07-10T02:52:41.380Z,98203
2017-07-10T02:55:09.455Z,98202
2017-07-10T02:57:37.543Z,98203
2017-07-10T03:00:05.600Z,98206
2017-07-10T03:02:33.692Z,98207
2017-07-10T03:05:02.519Z,98201
2017-07-10T03:07:30.594Z,98206
2017-07-10T03:09:58.664Z,98205
2017-07-10T03:12:26.740Z,98217
2017-07-10T03:14:54.810Z,98203
2017-07-10T03:17:22.884Z,98212
2017-07-10T03:19:50.969Z,98204
2017-07-10T03:22:19.082Z,98208
2017-07-10T03:24:47.171Z,98207
2017-07-10T03:27:15.236Z,98197
2017-07-10T03:29:44.079Z,98201
2017-07-10T03:32:12.135Z,98204
2017-07-10T03:34:40.214Z,98194
2017-07-10T03:37:08.325Z,98185
2017-07-10T03:39:36.404Z,98180
2017-07-10T03:42:05.275Z,98186
2017-07-10T03:44:33.354Z,98180
2017-07-10T03:47:01.428Z,98177
2017-07-10T03:49:29.495Z,98181
2017-07-10T03:51:57.568Z,98180
2017-07-10T03:54:25.627Z,98209
2017-07-10T03:56:53.703Z,98208
2017-07-10T03:59:21.835Z,98205
2017-07-10T04:01:49.920Z,98193
2017-07-10T04:04:18.005Z,98196
2017-07-10T04:06:46.108Z,98195
2017-07-10T04:09:14.181Z,98192
2017-07-10T04:11:42.248Z,98181
2017-07-10T04:14:10.323Z,98192
2017-07-10T04:16:38.391Z,98190
2017-07-10T04:19:06.463Z,98182
2017-07-10T04:21:34.536Z,98177
2017-07-10T04:24:02.611Z,98168
2017-07-10T04:26:30.676Z,98170
2017-07-10T04:28:58.752Z,98159
2017-07-10T04:31:26.815Z,98167
2017-07-10T04:33:54.897Z,98167
2017-07-10T04:36:22.971Z,98169
2017-07-10T04:38:51.043Z,98172
2017-07-10T04:41:19.117Z,98171
2017-07-10T04:43:47.253Z,98161
2017-07-10T04:46:15.556Z,98161
2017-07-10T04:48:43.623Z,98162
2017-07-10T04:51:11.704Z,98167
2017-07-10T04:53:40.770Z,98173
2017-07-10T04:56:08.870Z,98171
2017-07-10T04:58:36.936Z,98167
2017-07-10T05:01:04.998Z,98167
2017-07-10T05:03:33.083Z,98179
2017-07-10T05:06:01.156Z,98178
2017-07-10T05:08:29.223Z,98179
2017-07-10T05:10:57.303Z,98171
2017-07-10T05:13:25.391Z,98186
2017-07-10T05:15:53.458Z,98181
2017-07-10T05:18:21.535Z,98190
2017-07-10T05:20:49.617Z,98191
2017-07-10T05:23:17.670Z,98195
2017-07-10T05:25:45.748Z,98183
2017-07-10T05:28:13.812Z,98198
2017-07-10T05:30:41.904Z,98190
2017-07-10T05:33:09.964Z,98190
2017-07-10T05:35:38.041Z,98190
2017-07-10T05:38:06.107Z,98203
2017-07-10T05:40:34.195Z,98197
2017-07-10T05:43:03.037Z,98208
2017-07-10T05:45:31.746Z,98205
2017-07-10T05:47:59.827Z,98203
2017-07-10T05:50:27.892Z,98208
2017-07-10T05:52:55.954Z,98202
2017-07-10T05:55:24.032Z,98192
2017-07-10T05:57:52.120Z,98202
2017-07-10T06:00:20.187Z,98188
2017-07-10T06:02:48.269Z,98203
2017-07-10T06:05:16.337Z,98201
2017-07-10T06:07:44.421Z,98205
2017-07-10T06:10:12.516Z,98197
2017-07-10T06:12:40.578Z,98194
2017-07-10T06:15:09.429Z,98183
2017-07-10T06:17:37.495Z,98182
2017-07-10T06:20:05.576Z,98181
2017-07-10T06:22:33.643Z,98183
2017-07-10T06:25:01.716Z,98172
2017-07-10T06:27:29.792Z,98175
2017-07-10T06:29:57.882Z,98188
2017-07-10T06:32:28.163Z,98183
2017-07-10T06:34:56.234Z,98194
2017-07-10T06:37:24.309Z,98187
2017-07-10T06:39:52.380Z,98185
2017-07-10T06:42:20.791Z,98187
2017-07-10T06:44:48.868Z,98179
2017-07-10T06:47:16.939Z,98175
2017-07-10T06:49:45.011Z,98180
2017-07-10T06:52:13.103Z,98183
2017-07-10T06:54:41.948Z,98188
2017-07-10T06:57:10.035Z,98180
2017-07-10T06:59:38.094Z,98186
2017-07-10T07:02:07.087Z,98181
2017-07-10T07:04:35.162Z,98174
2017-07-10T07:07:03.222Z,98171
2017-07-10T07:09:31.295Z,98165
2017-07-10T07:11:59.362Z,98175
2017-07-10T07:14:27.436Z,98175
2017-07-10T07:16:55.496Z,98186
2017-07-10T07:19:23.582Z,98180
2017-07-10T07:21:51.652Z,98180
2017-07-10T07:24:19.728Z,98188
2017-07-10T07:26:47.798Z,98190
2017-07-10T07:29:15.868Z,98192
2017-07-10T07:31:43.943Z,98186
2017-07-10T07:34:12.012Z,98185
2017-07-10T07:36:40.097Z,98180
2017-07-10T07:39:08.159Z,98184
2017-07-10T07:41:36.230Z,98182
2017-07-10T07:44:04.313Z,98190
2017-07-10T07:46:32.395Z,98182
2017-07-10T07:49:00.461Z,98181
2017-07-10T07:51:28.542Z,98166
2017-07-10T07:53:56.613Z,98177
2017-07-10T07:56:24.688Z,98182
2017-07-10T07:58:53.684Z,98176
2017-07-10T08:01:21.755Z,98170
2017-07-10T08:03:49.827Z,98170
2017-07-10T08:06:17.973Z,98181
2017-07-10T08:08:46.036Z,98177
2017-07-10T08:11:14.110Z,98170
2017-07-10T08:13:42.199Z,98172
2017-07-10T08:16:10.263Z,98171
2017-07-10T08:18:38.352Z,98173
2017-07-10T08:21:06.428Z,98177
2017-07-10T08:23:34.493Z,98185
2017-07-10T08:26:02.570Z,98176
2017-07-10T08:28:30.661Z,98177
2017-07-10T08:30:58.741Z,98188
2017-07-10T08:33:26.828Z,98185
2017-07-10T08:35:55.676Z,98177
2017-07-10T08:38:23.743Z,98179
2017-07-10T08:40:51.823Z,98176
2017-07-10T08:43:19.920Z,98166
2017-07-10T08:45:47.995Z,98164
2017-07-10T08:48:16.064Z,98165
2017-07-10T08:50:44.135Z,98155
2017-07-10T08:53:12.208Z,98163
2017-07-10T08:55:40.280Z,98156
2017-07-10T08:58:08.352Z,98156
2017-07-10T09:00:36.419Z,98161
2017-07-10T09:03:04.508Z,98155
2017-07-10T09:05:32.571Z,98153
2017-07-10T09:08:00.654Z,98156
2017-07-10T09:10:29.676Z,98152
2017-07-10T09:12:57.768Z,98152
2017-07-10T09:15:25.962Z,98156
2017-07-10T09:17:54.035Z,98143
2017-07-10T09:20:22.649Z,98155
2017-07-10T09:22:50.712Z,98148
2017-07-10T09:25:18.784Z,98147
2017-07-10T09:27:46.857Z,98150
2017-07-10T09:30:14.932Z,98148
2017-07-10T09:32:43.034Z,98148
2017-07-10T09:35:11.128Z,98131
2017-07-10T09:37:39.187Z,98130
2017-07-10T09:40:08.125Z,98132
2017-07-10T09:42:36.198Z,98138
2017-07-10T09:45:04.263Z,98130
2017-07-10T09:47:32.342Z,98129
2017-07-10T09:50:00.403Z,98134
2017-07-10T09:52:28.483Z,98118
2017-07-10T09:54:56.568Z,98127
2017-07-10T09:57:24.644Z,98122
2017-07-10T09:59:52.734Z,98111
2017-07-10T10:02:21.573Z,98107
2017-07-10T10:04:49.640Z,98107
2017-07-10T10:07:17.737Z,98110
2017-07-10T10:09:45.806Z,98106
2017-07-10T10:12:13.876Z,98114
2017-07-10T10:14:41.948Z,98106
2017-07-10T10:17:10.011Z,98099
2017-07-10T10:19:38.083Z,98098
2017-07-10T10:22:06.360Z,98109
2017-07-10T10:24:34.471Z,98099
2017-07-10T10:27:02.532Z,98095
2017-07-10T10:29:30.635Z,98085
2017-07-10T10:31:58.708Z,98088
2017-07-10T10:34:26.787Z,98077
2017-07-10T10:36:54.852Z,98077
2017-07-10T10:39:23.692Z,98080
2017-07-10T10:41:51.759Z,98082
2017-07-10T10:44:19.820Z,98080
2017-07-10T10:46:47.895Z,98081
2017-07-10T10:49:15.961Z,98083
2017-07-10T10:51:44.036Z,98070
2017-07-10T10:54:12.106Z,98065
2017-07-10T10:56:40.188Z,98063
2017-07-10T10:59:08.248Z,98050
2017-07-10T11:01:36.327Z,98055
2017-07-10T11:04:04.378Z,98055
2017-07-10T11:06:32.464Z,98059
2017-07-10T11:09:00.523Z,98077
2017-07-10T11:11:28.582Z,98088
2017-07-10T11:13:56.652Z,98099
2017-07-10T11:16:24.718Z,98105
2017-07-10T11:18:52.796Z,98108
2017-07-10T11:21:20.856Z,98114
2017-07-10T11:23:49.691Z,98104
2017-07-10T11:26:17.864Z,98100
2017-07-10T11:28:45.934Z,98090
2017-07-10T11:31:14.001Z,98093
2017-07-10T11:33:42.068Z,98092
2017-07-10T11:36:10.128Z,98087
2017-07-10T11:38:38.204Z,98092
2017-07-10T11:41:06.322Z,98090
2017-07-10T11:43:34.384Z,98095
2017-07-10T11:46:02.459Z,98103
2017-07-10T11:48:30.522Z,98105
2017-07-10T11:50:58.593Z,98125
2017-07-10T11:53:26.659Z,98125
2017-07-10T11:55:54.728Z,98122
2017-07-10T11:58:22.787Z,98132
2017-07-10T12:00:50.876Z,98123
2017-07-10T12:03:18.951Z,98122
2017-07-10T12:05:47.780Z,98122
2017-07-10T12:08:15.858Z,98114
2017-07-10T12:10:43.924Z,98116
2017-07-10T12:13:12.003Z,98101
2017-07-10T12:15:40.062Z,98093
2017-07-10T12:18:08.207Z,98091
2017-07-10T12:20:36.375Z,98093
2017-07-10T12:23:04.450Z,98092
2017-07-10T12:25:32.519Z,98083
2017-07-10T12:28:00.578Z,98082
2017-07-10T12:30:28.663Z,98081
2017-07-10T12:32:56.747Z,98076
2017-07-10T12:35:24.832Z,98071
2017-07-10T12:37:52.913Z,98069
2017-07-10T12:40:20.990Z,98069
2017-07-10T12:42:49.068Z,98074
2017-07-10T12:45:17.135Z,98074
2017-07-10T12:47:45.212Z,98066
2017-07-10T12:50:13.284Z,98065
2017-07-10T12:52:41.351Z,98069
2017-07-10T12:55:09.406Z,98063
2017-07-10T12:57:37.483Z,98068
2017-07-10T13:00:05.547Z,98055
2017-07-10T13:02:33.623Z,98052
2017-07-10T13:05:01.691Z,98056
2017-07-10T13:07:29.772Z,98057
2017-07-10T13:09:57.840Z,98065
2017-07-10T13:12:25.933Z,98063
2017-07-10T13:14:53.999Z,98065
2017-07-10T13:17:22.064Z,98068
2017-07-10T13:19:50.147Z,98071
2017-07-10T13:22:18.219Z,98079
2017-07-10T13:24:46.292Z,98072
2017-07-10T13:27:14.355Z,98086
2017-07-10T13:29:42.437Z,98079
2017-07-10T13:32:10.492Z,98090
2017-07-10T13:34:38.576Z,98095
2017-07-10T13:37:06.640Z,98086
2017-07-10T13:39:34.708Z,98081
2017-07-10T13:42:02.788Z,98082
2017-07-10T13:44:30.862Z,98083
2017-07-10T13:46:59.251Z,98077
2017-07-10T13:49:27.319Z,98075
2017-07-10T13:51:55.395Z,98077
2017-07-10T13:54:23.467Z,98083
2017-07-10T13:56:51.557Z,98091
2017-07-10T13:59:20.396Z,98096
2017-07-10T14:01:49.252Z,98086
2017-07-10T14:04:17.327Z,98079
2017-07-10T14:06:45.396Z,98083
2017-07-10T14:09:13.505Z,98084
2017-07-10T14:11:41.585Z,98078
2017-07-10T14:14:09.661Z,98070
2017-07-10T14:16:38.551Z,98065
2017-07-10T14:19:06.632Z,98072
2017-07-10T14:21:34.716Z,98069
2017-07-10T14:24:02.807Z,98059
2017-07-10T14:26:30.881Z,98058
2017-07-10T14:28:58.967Z,98057
2017-07-10T14:31:27.074Z,98046
2017-07-10T14:33:55.143Z,98045
2017-07-10T14:36:23.261Z,98036
2017-07-10T14:38:51.336Z,98041
2017-07-10T14:41:19.435Z,98038
2017-07-10T14:43:47.500Z,98034
2017-07-10T14:46:15.575Z,98029
2017-07-10T14:48:43.639Z,98035
2017-07-10T14:51:12.496Z,98027
2017-07-10T14:53:40.562Z,98029
2017-07-10T14:56:08.628Z,98028
2017-07-10T14:58:36.760Z,98026
2017-07-10T15:01:04.836Z,98031
2017-07-10T15:03:32.906Z,98031
2017-07-10T15:06:00.967Z,98037
2017-07-10T15:08:29.812Z,98034
2017-07-10T15:10:57.885Z,98033
2017-07-10T15:13:25.959Z,98026
2017-07-10T15:15:54.037Z,98033
2017-07-10T15:18:22.111Z,98031
2017-07-10T15:20:50.176Z,98029
2017-07-10T15:23:18.267Z,98032
2017-07-10T15:25:46.372Z,98034
2017-07-10T15:28:14.438Z,98032
2017-07-10T15:30:42.515Z,98038
2017-07-10T15:33:11.088Z,98038
2017-07-10T15:35:39.164Z,98035
2017-07-10T15:38:07.226Z,98043
2017-07-10T15:40:36.076Z,98047
2017-07-10T15:43:04.157Z,98040
2017-07-10T15:45:32.231Z,98037
2017-07-10T15:48:00.303Z,98039
2017-07-10T15:50:28.387Z,98040
2017-07-10T15:52:56.458Z,98030
2017-07-10T15:55:24.533Z,98023
2017-07-10T15:57:52.615Z,98029
2017-07-10T16:00:20.689Z,98024
2017-07-10T16:02:49.472Z,98043
2017-07-10T16:05:17.535Z,98026
2017-07-10T16:07:45.614Z,98040
2017-07-10T16:10:13.683Z,98041
2017-07-10T16:12:41.767Z,98038
2017-07-10T16:15:09.836Z,98056
2017-07-10T16:17:37.920Z,98056
2017-07-10T16:20:06.755Z,98045
2017-07-10T16:22:34.844Z,98045
2017-07-10T16:25:02.904Z,98065
2017-07-10T16:27:30.988Z,98054
2017-07-10T16:29:59.059Z,98061
2017-07-10T16:32:27.131Z,98065
2017-07-10T16:34:55.228Z,98083
2017-07-10T16:37:23.388Z,98111
2017-07-10T16:39:51.471Z,98117
2017-07-10T16:42:19.539Z,98110
2017-07-10T16:44:47.616Z,98108
2017-07-10T16:47:15.684Z,98098
2017-07-10T16:49:43.781Z,98106
2017-07-10T16:52:11.887Z,98103
2017-07-10T16:54:39.958Z,98102
2017-07-10T16:57:08.030Z,98103
2017-07-10T16:59:36.136Z,98109
2017-07-10T17:02:04.211Z,98112
2017-07-10T17:04:32.274Z,98111
2017-07-10T17:07:00.363Z,98105
2017-07-10T17:09:28.426Z,98099
2017-07-10T17:11:56.507Z,98108
2017-07-10T17:14:24.597Z,98111
2017-07-10T17:16:52.717Z,98111
2017-07-10T17:19:20.801Z,98108
2017-07-10T17:21:49.004Z,98108
2017-07-10T17:24:17.075Z,98108
2017-07-10T17:26:45.159Z,98098
2017-07-10T17:29:13.265Z,98107
2017-07-10T17:31:41.335Z,98105
2017-07-10T17:34:09.421Z,98102
2017-07-10T17:36:37.501Z,98107
2017-07-10T17:39:05.827Z,98098
2017-07-10T17:41:34.127Z,98096
2017-07-10T17:44:02.973Z,98101
2017-07-10T17:46:31.061Z,98102
2017-07-10T17:48:59.143Z,98106
2017-07-10T17:51:28.071Z,98111
2017-07-10T17:53:56.240Z,98110
2017-07-10T17:56:24.313Z,98122
2017-07-10T17:58:52.413Z,98115
2017-07-10T18:01:20.496Z,98118
2017-07-10T18:03:48.584Z,98111
2017-07-10T18:06:16.659Z,98120
2017-07-10T18:08:44.740Z,98120
2017-07-10T18:11:13.596Z,98131
2017-07-10T18:13:41.666Z,98134
2017-07-10T18:16:09.757Z,98135
2017-07-10T18:18:37.827Z,98129
2017-07-10T18:21:05.918Z,98135
2017-07-10T18:23:33.984Z,98137
2017-07-10T18:26:02.055Z,98142
2017-07-10T18:28:30.154Z,98140
2017-07-10T18:30:58.197Z,98135
2017-07-10T18:33:26.288Z,98141
2017-07-10T18:35:54.358Z,98144
2017-07-10T18:38:22.433Z,98130
2017-07-10T18:40:51.266Z,98133
2017-07-10T18:43:19.353Z,98150
2017-07-10T18:45:47.419Z,98141
2017-07-10T18:48:15.483Z,98154
2017-07-10T18:50:43.574Z,98145
2017-07-10T18:53:11.667Z,98146
2017-07-10T18:55:39.738Z,98148
2017-07-10T18:58:07.811Z,98142
2017-07-10T19:00:35.893Z,98143
2017-07-10T19:03:03.977Z,98147
2017-07-10T19:05:32.824Z,98148
2017-07-10T19:08:00.893Z,98148
2017-07-10T19:10:28.992Z,98149
2017-07-10T19:12:57.064Z,98156
2017-07-10T19:15:25.152Z,98163
2017-07-10T19:17:53.228Z,98171
2017-07-10T19:20:22.063Z,98163
2017-07-10T19:22:50.158Z,98176
2017-07-10T19:25:18.227Z,98166
2017-07-10T19:27:46.304Z,98174
2017-07-10T19:30:14.381Z,98169
2017-07-10T19:32:42.468Z,98175
2017-07-10T19:35:10.546Z,98176
2017-07-10T19:37:38.618Z,98172
2017-07-10T19:40:07.457Z,98182
2017-07-10T19:42:35.551Z,98189
2017-07-10T19:45:03.623Z,98195
2017-07-10T19:47:31.721Z,98209
2017-07-10T19:49:59.799Z,98217
2017-07-10T19:52:28.638Z,98225
2017-07-10T19:54:56.719Z,98215
2017-07-10T19:57:24.794Z,98216
2017-07-10T19:59:52.923Z,98216
2017-07-10T20:02:21.762Z,98209
2017-07-10T20:04:49.840Z,98205
2017-07-10T20:07:17.918Z,98223
2017-07-10T20:09:46.007Z,98224
2017-07-10T20:12:14.087Z,98226
2017-07-10T20:14:42.160Z,98228
2017-07-10T20:17:10.232Z,98236
2017-07-10T20:19:38.303Z,98236
2017-07-10T20:22:06.388Z,98245
2017-07-10T20:24:34.457Z,98238
2017-07-10T20:27:03.314Z,98234
2017-07-10T20:29:31.388Z,98234
2017-07-10T20:31:59.485Z,98236
2017-07-10T20:34:27.561Z,98238
2017-07-10T20:36:56.424Z,98245
2017-07-10T20:39:24.492Z,98250
2017-07-10T20:41:52.555Z,98248
2017-07-10T20:44:20.641Z,98252
2017-07-10T20:46:48.712Z,98249
2017-07-10T20:49:16.799Z,98253
2017-07-10T20:51:44.873Z,98251
2017-07-10T20:54:12.967Z,98253
2017-07-10T20:56:41.803Z,98261
2017-07-10T20:59:09.891Z,98278
2017-07-10T21:01:37.964Z,98267
2017-07-10T21:04:06.047Z,98264
2017-07-10T21:06:34.121Z,98270
2017-07-10T21:09:02.187Z,98280
2017-07-10T21:11:30.406Z,98286
2017-07-10T21:13:58.646Z,98279
2017-07-10T21:16:27.026Z,98291
2017-07-10T21:18:55.096Z,98287
2017-07-10T21:21:23.170Z,98266
2017-07-10T21:23:51.235Z,98272
2017-07-10T21:26:19.317Z,98273
2017-07-10T21:28:47.384Z,98272
2017-07-10T21:31:15.448Z,98287
2017-07-10T21:33:43.538Z,98294
2017-07-10T21:36:11.598Z,98288
2017-07-10T21:38:39.671Z,98294
2017-07-10T21:41:07.743Z,98278
2017-07-10T21:43:35.836Z,98278
2017-07-10T21:46:04.672Z,98278
2017-07-10T21:48:32.751Z,98269
2017-07-10T21:51:00.823Z,98272
2017-07-10T21:53:28.891Z,98283
2017-07-10T21:55:56.972Z,98280
2017-07-10T21:58:25.034Z,98272
2017-07-10T22:00:53.120Z,98280
2017-07-10T22:03:21.173Z,98295
2017-07-10T22:05:49.273Z,98288
2017-07-10T22:08:17.339Z,98286
2017-07-10T22:10:45.416Z,98283
2017-07-10T22:13:13.496Z,98280
2017-07-10T22:15:41.564Z,98284
2017-07-10T22:18:09.636Z,98292
2017-07-10T22:20:37.707Z,98289
2017-07-10T22:23:05.778Z,98291
2017-07-10T22:25:33.852Z,98303
2017-07-10T22:28:01.939Z,98306
2017-07-10T22:30:30.013Z,98311
2017-07-10T22:32:58.196Z,98319
2017-07-10T22:35:26.268Z,98312
2017-07-10T22:37:54.337Z,98310
2017-07-10T22:40:22.412Z,98319
2017-07-10T22:42:50.483Z,98315
2017-07-10T22:45:18.558Z,98325
2017-07-10T22:47:47.395Z,98324
2017-07-10T22:50:15.482Z,98323
2017-07-10T22:52:43.543Z,98320
2017-07-10T22:55:11.624Z,98322
2017-07-10T22:57:40.046Z,98327
2017-07-10T23:00:08.123Z,98325
2017-07-10T23:02:36.964Z,98325
2017-07-10T23:05:05.027Z,98324
2017-07-10T23:07:33.100Z,98335
2017-07-10T23:10:01.172Z,98339
2017-07-10T23:12:29.251Z,98338
2017-07-10T23:14:57.325Z,98335
2017-07-10T23:17:25.388Z,98336
2017-07-10T23:19:53.463Z,98342
2017-07-10T23:22:21.535Z,98341
2017-07-10T23:24:49.612Z,98344
2017-07-10T23:27:17.712Z,98351
2017-07-10T23:29:45.799Z,98347
2017-07-10T23:32:13.868Z,98355
2017-07-10T23:34:41.968Z,98347
2017-07-10T23:37:10.035Z,98352
2017-07-10T23:39:38.104Z,98353
2017-07-10T23:42:06.179Z,98350
2017-07-10T23:44:35.008Z,98350
2017-07-10T23:47:03.078Z,98347
2017-07-10T23:49:31.160Z,98348
2017-07-10T23:51:59.245Z,98342
2017-07-10T23:54:27.316Z,98344
2017-07-10T23:56:55.432Z,98346
2017-07-10T23:59:24.262Z,98341
